Time;durP1;ratioP1;P1;durP2;ratioP2;P2;SDS_P1;SDS_P2;PMS_P1;PMS_P2;Temp;Humidity;BMP_temperature;BMP_pressure;BME280_temperature;BME280_humidity;BME280_pressure;Samples;Min_cycle;Max_cycle;Signal;HPM_P1;HPM_P2
2022/10/29 04:22:55;;;;;;;6.47;2.42;;;;;;;10.39;100.00;100840.50;5109444;27;20335;-72
2022/10/29 04:25:20;;;;;;;2.97;2.20;;;;;;;10.46;100.00;100835.38;5109305;28;20552;-71
2022/10/29 04:27:46;;;;;;;6.07;2.00;;;;;;;10.42;100.00;100845.50;5109337;28;20076;-71
2022/10/29 04:30:11;;;;;;;5.45;2.30;;;;;;;10.47;100.00;100850.34;5109112;28;20042;-71
2022/10/29 04:32:36;;;;;;;6.70;2.22;;;;;;;10.44;100.00;100848.84;5109614;28;20064;-70
2022/10/29 04:35:02;;;;;;;3.13;1.85;;;;;;;10.42;100.00;100853.47;5109197;28;20057;-70
2022/10/29 04:37:28;;;;;;;7.22;2.22;;;;;;;10.39;100.00;100845.81;5109072;28;20468;-70
2022/10/29 04:39:54;;;;;;;3.50;1.90;;;;;;;10.41;100.00;100849.16;5108928;28;20036;-70
2022/10/29 04:42:19;;;;;;;6.03;2.75;;;;;;;10.44;100.00;100842.69;5108709;28;20534;-70
2022/10/29 04:44:44;;;;;;;2.45;1.80;;;;;;;10.43;100.00;100852.50;5109013;28;20032;-71
2022/10/29 04:47:10;;;;;;;3.22;2.15;;;;;;;10.43;100.00;100849.00;5108915;28;20043;-70
2022/10/29 04:49:35;;;;;;;4.43;2.20;;;;;;;10.42;100.00;100850.81;5108884;28;20386;-70
2022/10/29 04:52:01;;;;;;;4.72;2.00;;;;;;;10.40;100.00;100851.97;5108451;28;20500;-70
2022/10/29 04:54:26;;;;;;;4.75;2.10;;;;;;;10.42;100.00;100847.31;5108635;28;20102;-71
2022/10/29 04:56:51;;;;;;;6.65;2.38;;;;;;;10.35;100.00;100839.13;5108774;28;20034;-70
2022/10/29 04:59:17;;;;;;;4.13;2.03;;;;;;;10.39;100.00;100843.16;5108650;28;20507;-70
2022/10/29 05:01:42;;;;;;;6.88;2.53;;;;;;;10.39;100.00;100845.81;5108401;28;20046;-70
2022/10/29 05:04:08;;;;;;;4.10;2.00;;;;;;;10.28;100.00;100838.09;5108692;28;20032;-71
2022/10/29 05:06:33;;;;;;;4.40;2.20;;;;;;;10.29;100.00;100845.91;5108669;28;20590;-70
2022/10/29 05:08:59;;;;;;;4.32;1.90;;;;;;;10.29;100.00;100847.75;5108723;28;20385;-70
2022/10/29 05:11:24;;;;;;;2.60;1.75;;;;;;;10.29;100.00;100842.41;5107962;28;20161;-72
2022/10/29 05:13:49;;;;;;;5.05;2.03;;;;;;;10.37;100.00;100839.81;5108459;28;20477;-69
2022/10/29 05:16:15;;;;;;;6.20;2.10;;;;;;;10.22;100.00;100834.19;5108372;28;20092;-70
2022/10/29 05:18:40;;;;;;;5.80;1.95;;;;;;;10.33;100.00;100844.63;5107345;28;20388;-69
2022/10/29 05:21:06;;;;;;;2.53;1.63;;;;;;;10.32;100.00;100842.13;5108144;28;20035;-70
2022/10/29 05:23:31;;;;;;;4.10;2.08;;;;;;;10.25;100.00;100838.41;5108577;28;20044;-71
2022/10/29 05:25:57;;;;;;;4.05;1.70;;;;;;;10.24;100.00;100845.56;5108563;28;20036;-70
2022/10/29 05:28:23;;;;;;;2.47;1.70;;;;;;;10.21;100.00;100856.47;5108658;28;20827;-70
2022/10/29 05:30:50;;;;;;;3.35;2.40;;;;;;;10.20;100.00;100852.16;5108512;28;20032;-70
2022/10/29 05:33:17;;;;;;;4.13;2.25;;;;;;;10.26;100.00;100856.88;5100733;28;20035;-69
2022/10/29 05:35:43;;;;;;;5.72;1.85;;;;;;;10.23;100.00;100846.53;5094912;28;20036;-71
2022/10/29 05:38:09;;;;;;;3.33;2.05;;;;;;;10.27;100.00;100845.25;5094640;28;20028;-71
2022/10/29 05:40:35;;;;;;;4.32;2.30;;;;;;;10.31;100.00;100851.94;5094381;28;20455;-71
2022/10/29 05:43:00;;;;;;;4.07;2.33;;;;;;;10.23;100.00;100851.88;5095487;28;20122;-70
2022/10/29 05:45:26;;;;;;;7.78;2.55;;;;;;;10.15;100.00;100859.78;5094998;28;20135;-70
2022/10/29 05:48:10;;;;;;;3.17;1.73;;;;;;;10.14;100.00;100865.25;5094614;28;20031;-71
2022/10/29 05:50:36;;;;;;;6.35;2.13;;;;;;;10.14;100.00;100858.09;5094425;28;20162;-70
2022/10/29 05:53:04;;;;;;;2.63;1.60;;;;;;;10.11;100.00;100862.91;5096562;28;20047;-70
2022/10/29 05:55:31;;;;;;;3.88;2.15;;;;;;;10.06;100.00;100866.88;5094364;28;20355;-71
2022/10/29 05:58:10;;;;;;;2.92;2.05;;;;;;;10.04;100.00;100862.66;5095264;28;20043;-71
2022/10/29 06:00:37;;;;;;;3.92;1.90;;;;;;;10.00;100.00;100854.19;5095436;28;20031;-71
2022/10/29 06:03:07;;;;;;;3.65;1.80;;;;;;;10.00;100.00;100856.84;5095614;28;20047;-69
2022/10/29 06:05:33;;;;;;;3.88;2.05;;;;;;;9.99;100.00;100849.00;5095429;28;20032;-70
2022/10/29 06:07:59;;;;;;;3.80;2.10;;;;;;;9.94;100.00;100853.97;5094654;28;20065;-71
2022/10/29 06:10:27;;;;;;;4.68;1.95;;;;;;;9.96;100.00;100857.28;5093837;28;20040;-69
2022/10/29 06:12:52;;;;;;;2.60;1.85;;;;;;;9.90;100.00;100856.09;5093990;28;20042;-69
2022/10/29 06:15:19;;;;;;;3.30;1.90;;;;;;;9.88;100.00;100850.09;5093904;28;20463;-70
2022/10/29 06:17:45;;;;;;;3.65;1.75;;;;;;;9.90;100.00;100857.91;5093925;28;20463;-70
2022/10/29 06:20:12;;;;;;;4.72;2.53;;;;;;;9.83;100.00;100849.69;5093663;28;20036;-70
2022/10/29 06:22:38;;;;;;;3.25;2.40;;;;;;;9.90;100.00;100856.09;5093996;28;20028;-70
2022/10/29 06:25:04;;;;;;;2.72;1.98;;;;;;;9.86;100.00;100854.72;5093849;28;20082;-59
2022/10/29 06:27:29;;;;;;;3.13;2.67;;;;;;;9.89;100.00;100853.59;5093446;28;20106;-59
2022/10/29 06:29:55;;;;;;;3.28;1.80;;;;;;;9.89;100.00;100850.91;5093205;28;20040;-60
2022/10/29 06:32:20;;;;;;;4.10;1.90;;;;;;;9.89;100.00;100849.09;5092929;28;20047;-60
2022/10/29 06:34:46;;;;;;;10.13;2.28;;;;;;;9.96;100.00;100854.63;5091828;28;20204;-61
2022/10/29 06:37:11;;;;;;;6.30;1.88;;;;;;;9.92;100.00;100856.78;5093028;28;20032;-64
2022/10/29 06:39:36;;;;;;;3.65;1.98;;;;;;;9.91;100.00;100854.25;5093234;28;20044;-64
2022/10/29 06:42:02;;;;;;;3.92;2.17;;;;;;;9.91;100.00;100844.47;5092775;28;20084;-63
2022/10/29 06:44:28;;;;;;;3.78;2.10;;;;;;;10.01;100.00;100847.03;5090747;28;20036;-65
2022/10/29 06:46:54;;;;;;;5.47;2.22;;;;;;;10.06;100.00;100856.22;5092853;28;20044;-64
2022/10/29 06:49:19;;;;;;;3.85;1.90;;;;;;;10.02;100.00;100857.50;5092921;28;20058;-65
2022/10/29 06:51:45;;;;;;;5.95;1.95;;;;;;;10.10;100.00;100856.72;5092429;28;20056;-64
2022/10/29 06:54:11;;;;;;;4.15;1.95;;;;;;;10.12;100.00;100864.59;5092924;28;20107;-65
2022/10/29 06:56:36;;;;;;;6.03;1.98;;;;;;;10.18;100.00;100859.47;5092783;28;20519;-63
2022/10/29 06:59:01;;;;;;;6.80;2.20;;;;;;;10.19;100.00;100863.81;5092804;28;20036;-64
2022/10/29 07:01:29;;;;;;;7.60;2.65;;;;;;;10.27;100.00;100868.38;5091381;28;20044;-64
2022/10/29 07:03:54;;;;;;;3.47;2.25;;;;;;;10.33;100.00;100867.75;5092721;28;20119;-64
2022/10/29 07:06:20;;;;;;;3.58;2.13;;;;;;;10.35;100.00;100868.41;5093055;28;20059;-67
2022/10/29 07:08:45;;;;;;;3.47;2.70;;;;;;;10.45;100.00;100865.66;5092707;28;20403;-64
2022/10/29 07:11:10;;;;;;;5.05;2.15;;;;;;;10.51;100.00;100863.22;5092241;28;20484;-63
2022/10/29 07:13:36;;;;;;;5.75;2.03;;;;;;;10.58;100.00;100861.59;5092600;28;20218;-64
2022/10/29 07:16:01;;;;;;;6.32;3.50;;;;;;;10.66;100.00;100867.94;5092379;28;20542;-63
2022/10/29 07:18:26;;;;;;;4.28;2.58;;;;;;;10.75;100.00;100866.97;5092564;28;20430;-64
2022/10/29 07:20:52;;;;;;;5.30;2.20;;;;;;;10.84;100.00;100871.38;5091904;28;20327;-63
2022/10/29 07:23:17;;;;;;;4.47;2.30;;;;;;;10.92;100.00;100871.41;5092413;28;20035;-64
2022/10/29 07:25:43;;;;;;;3.40;2.40;;;;;;;11.00;100.00;100868.75;5092318;28;20044;-64
2022/10/29 07:28:17;;;;;;;4.80;2.70;;;;;;;11.06;100.00;100856.63;5091023;28;20392;-64
2022/10/29 07:30:43;;;;;;;6.13;1.92;;;;;;;11.13;100.00;100863.81;5091946;28;20489;-64
2022/10/29 07:33:09;;;;;;;4.35;2.92;;;;;;;11.22;100.00;100862.03;5092030;28;20169;-64
2022/10/29 07:35:34;;;;;;;5.93;3.13;;;;;;;11.27;100.00;100865.00;5092195;28;20595;-64
2022/10/29 07:38:05;;;;;;;6.13;2.90;;;;;;;11.33;100.00;100867.03;5092053;28;20042;-64
2022/10/29 07:40:30;;;;;;;7.47;3.50;;;;;;;11.43;100.00;100866.06;5090462;28;20115;-64
2022/10/29 07:42:56;;;;;;;9.60;3.05;;;;;;;11.46;100.00;100861.22;5092298;28;20592;-63
2022/10/29 07:45:22;;;;;;;7.30;3.50;;;;;;;11.57;100.00;100874.25;5092042;28;20115;-65
2022/10/29 07:47:48;;;;;;;3.38;2.90;;;;;;;11.64;100.00;100877.94;5091850;28;20119;-64
2022/10/29 07:50:13;;;;;;;4.25;2.50;;;;;;;11.72;100.00;100878.94;5091430;28;20063;-64
2022/10/29 07:52:39;;;;;;;5.38;3.33;;;;;;;11.75;100.00;100866.09;5091738;28;20172;-64
2022/10/29 07:55:06;;;;;;;4.40;2.90;;;;;;;11.84;100.00;100862.47;5091889;28;20598;-65
2022/10/29 07:57:32;;;;;;;4.13;2.90;;;;;;;11.94;100.00;100876.50;5090122;28;20477;-64
2022/10/29 07:59:57;;;;;;;4.70;2.70;;;;;;;12.04;100.00;100880.81;5091711;28;20055;-64
2022/10/29 08:02:23;;;;;;;9.95;3.05;;;;;;;12.15;100.00;100883.16;5091508;28;20035;-65
2022/10/29 08:04:48;;;;;;;7.10;2.80;;;;;;;12.25;100.00;100881.13;5091695;28;20039;-65
2022/10/29 08:07:13;;;;;;;3.92;2.95;;;;;;;12.36;100.00;100875.44;5091363;28;20055;-65
2022/10/29 08:09:39;;;;;;;6.07;2.80;;;;;;;12.47;100.00;100882.28;5091055;28;20035;-65
2022/10/29 08:12:07;;;;;;;5.65;2.60;;;;;;;12.62;100.00;100877.06;5090529;28;20131;-64
2022/10/29 08:14:32;;;;;;;7.63;2.95;;;;;;;12.75;100.00;100883.53;5090885;28;20545;-65
2022/10/29 08:16:58;;;;;;;3.50;2.80;;;;;;;12.88;100.00;100880.31;5089384;28;20055;-64
2022/10/29 08:19:23;;;;;;;7.30;2.47;;;;;;;13.03;100.00;100883.09;5090026;28;20036;-64
2022/10/29 08:21:48;;;;;;;3.85;2.80;;;;;;;13.17;100.00;100885.06;5090267;28;20043;-65
2022/10/29 08:24:15;;;;;;;3.85;2.60;;;;;;;13.33;100.00;100883.34;5091816;28;20075;-64
2022/10/29 08:26:40;;;;;;;8.02;2.65;;;;;;;13.47;100.00;100879.91;5091938;28;20449;-64
2022/10/29 08:29:06;;;;;;;4.22;2.08;;;;;;;13.60;100.00;100879.31;5091666;28;20173;-64
2022/10/29 08:31:31;;;;;;;3.40;2.53;;;;;;;13.73;100.00;100877.72;5091203;28;20040;-65
2022/10/29 08:33:56;;;;;;;4.38;2.63;;;;;;;13.85;100.00;100878.97;5091503;28;20081;-65
2022/10/29 08:36:22;;;;;;;3.47;2.38;;;;;;;13.96;100.00;100863.50;5091564;28;20035;-64
2022/10/29 08:38:47;;;;;;;4.78;2.75;;;;;;;14.09;100.00;100867.22;5091421;28;20396;-65
2022/10/29 08:41:34;;;;;;;3.72;2.55;;;;;;;14.24;100.00;100879.81;5089929;28;20028;-66
2022/10/29 08:44:09;;;;;;;4.55;2.58;;;;;;;14.35;100.00;100874.84;5091243;28;20510;-66
2022/10/29 08:46:39;;;;;;;4.57;2.55;;;;;;;14.45;100.00;100871.06;5091311;28;20051;-66
2022/10/29 08:49:12;;;;;;;3.63;1.85;;;;;;;14.56;100.00;100873.34;5091347;28;20031;-66
2022/10/29 08:51:41;;;;;;;3.13;2.20;;;;;;;14.67;100.00;100878.25;5090969;28;20115;-52
2022/10/29 08:54:13;;;;;;;2.92;2.30;;;;;;;14.76;100.00;100874.44;5091304;28;20042;-54
2022/10/29 08:56:44;;;;;;;5.10;3.03;;;;;;;14.80;100.00;100874.88;5091222;28;20035;-67
2022/10/29 08:59:15;;;;;;;4.80;2.22;;;;;;;14.84;100.00;100879.72;5091276;28;20510;-64
2022/10/29 09:01:41;;;;;;;4.63;2.25;;;;;;;14.91;100.00;100879.78;5090852;28;20028;-64
2022/10/29 09:04:29;;;;;;;6.00;2.72;;;;;;;15.00;100.00;100884.06;5091060;28;20048;-63
2022/10/29 09:07:03;;;;;;;3.83;2.38;;;;;;;15.13;100.00;100878.03;5091026;28;20032;-64
2022/10/29 09:09:45;;;;;;;4.07;2.00;;;;;;;15.32;100.00;100880.13;5094471;28;20044;-64
2022/10/29 09:12:32;;;;;;;4.32;2.47;;;;;;;15.48;100.00;100869.13;5094436;28;20036;-61
2022/10/29 09:15:12;;;;;;;3.70;2.55;;;;;;;15.71;100.00;100870.84;5094857;28;20067;-64
2022/10/29 09:18:02;;;;;;;4.20;2.28;;;;;;;15.88;100.00;100868.72;5094672;28;20485;-61
2022/10/29 09:21:21;;;;;;;3.25;2.22;;;;;;;16.14;100.00;100860.91;5094364;28;20055;-61
2022/10/29 09:24:12;;;;;;;3.55;2.35;;;;;;;16.36;100.00;100867.03;5090158;28;20044;-64
2022/10/29 09:27:09;;;;;;;3.10;2.13;;;;;;;16.60;100.00;100856.88;5094388;28;20055;-62
2022/10/29 09:29:46;;;;;;;4.32;2.35;;;;;;;16.86;100.00;100870.50;5094011;28;20051;-61
2022/10/29 09:32:32;;;;;;;2.70;1.80;;;;;;;17.12;100.00;100872.47;5094175;28;20558;-63
2022/10/29 09:35:05;;;;;;;4.20;2.00;;;;;;;17.58;96.74;100864.53;5094835;28;20042;-61
2022/10/29 09:37:40;;;;;;;4.65;2.00;;;;;;;17.78;94.46;100864.59;5094787;28;20040;-62
2022/10/29 09:40:29;;;;;;;3.95;1.85;;;;;;;17.91;92.37;100858.41;5094621;28;20035;-65
2022/10/29 09:42:54;;;;;;;4.43;1.90;;;;;;;18.04;86.40;100855.72;5093137;28;20043;-65
2022/10/29 09:45:40;;;;;;;3.33;2.03;;;;;;;18.25;84.06;100868.13;5094527;28;20021;-64
2022/10/29 09:48:12;;;;;;;2.85;1.73;;;;;;;18.63;85.75;100865.59;5094362;28;20437;-59
2022/10/29 09:50:47;;;;;;;2.33;1.83;;;;;;;19.02;84.12;100868.41;5094100;28;20126;-60
2022/10/29 09:53:13;;;;;;;4.38;2.20;;;;;;;19.37;80.04;100871.59;5095231;28;20024;-60
2022/10/29 09:55:42;;;;;;;4.40;2.00;;;;;;;19.79;79.79;100873.66;5095356;28;20439;-62
2022/10/29 09:58:21;;;;;;;4.15;2.22;;;;;;;20.54;73.80;100870.16;5095979;28;20060;-60
2022/10/29 10:00:47;;;;;;;5.90;1.73;;;;;;;20.73;71.17;100879.91;5094506;28;20093;-58
2022/10/29 10:03:19;;;;;;;5.90;2.00;;;;;;;21.29;68.74;100876.16;5094779;28;20036;-56
2022/10/29 10:06:03;;;;;;;2.72;1.85;;;;;;;21.92;65.26;100877.56;5094106;28;20392;-61
2022/10/29 10:08:29;;;;;;;3.90;1.67;;;;;;;22.89;62.52;100885.31;5093969;28;20488;-61
2022/10/29 10:11:06;;;;;;;2.72;1.67;;;;;;;23.46;59.18;100878.00;5093573;28;20445;-60
2022/10/29 10:13:35;;;;;;;3.53;1.73;;;;;;;23.93;54.89;100869.66;5093706;28;20489;-61
2022/10/29 10:16:04;;;;;;;2.75;1.88;;;;;;;24.05;53.56;100861.41;5093693;28;20047;-62
2022/10/29 10:18:32;;;;;;;4.80;1.70;;;;;;;24.52;52.19;100859.16;5093652;28;20036;-62
2022/10/29 10:21:03;;;;;;;3.92;1.85;;;;;;;25.04;50.76;100849.72;5093203;28;20067;-62
2022/10/29 10:23:39;;;;;;;4.78;2.10;;;;;;;25.33;51.49;100853.09;5093518;28;20036;-60
2022/10/29 10:26:04;;;;;;;3.80;1.85;;;;;;;25.73;48.51;100841.81;5093309;28;20036;-61
2022/10/29 10:28:33;;;;;;;5.32;2.00;;;;;;;23.87;51.78;100839.91;5093413;28;20119;-62
2022/10/29 10:31:15;;;;;;;4.40;2.25;;;;;;;24.71;52.55;100837.06;5093008;28;20042;-62
2022/10/29 10:33:51;;;;;;;5.82;2.65;;;;;;;24.99;50.60;100842.34;5093735;28;20439;-61
2022/10/29 10:36:22;;;;;;;6.40;2.42;;;;;;;25.03;50.80;100837.19;5093170;28;20522;-54
2022/10/29 10:38:54;;;;;;;5.45;2.35;;;;;;;25.62;49.04;100829.13;5091285;28;20070;-58
2022/10/29 10:41:42;;;;;;;5.90;2.50;;;;;;;26.09;47.50;100818.38;5092630;28;20039;-66
2022/10/29 10:44:12;;;;;;;2.67;2.10;;;;;;;25.63;47.98;100811.69;5072743;28;20153;-66
2022/10/29 10:46:41;;;;;;;8.18;2.30;;;;;;;26.37;46.89;100808.16;5072659;28;20067;-65
2022/10/29 10:49:16;;;;;;;7.55;2.88;;;;;;;27.02;45.70;100815.84;5072649;28;20127;-66
2022/10/29 10:51:47;;;;;;;7.80;3.13;;;;;;;27.55;44.73;100812.97;5072247;28;20496;-66
2022/10/29 10:54:29;;;;;;;12.02;4.75;;;;;;;27.32;45.16;100800.63;5072640;28;20040;-66
2022/10/29 10:57:00;;;;;;;3.90;2.13;;;;;;;26.44;45.88;100786.91;5072919;28;20442;-66
2022/10/29 10:59:39;;;;;;;5.93;2.88;;;;;;;26.97;46.15;100782.22;5072492;28;20033;-66
2022/10/29 11:02:16;;;;;;;8.93;4.53;;;;;;;27.63;42.71;100773.28;5085967;28;20493;-65
2022/10/29 11:04:44;;;;;;;5.68;3.33;;;;;;;27.65;42.99;100769.22;5092689;28;20127;-66
2022/10/29 11:07:12;;;;;;;9.73;3.63;;;;;;;27.82;42.72;100775.22;5092480;28;20043;-66
2022/10/29 11:09:45;;;;;;;8.50;3.95;;;;;;;27.85;43.14;100769.22;5092474;28;20044;-65
2022/10/29 11:12:19;;;;;;;9.73;3.75;;;;;;;28.26;42.34;100768.31;5091962;28;20040;-65
2022/10/29 11:14:48;;;;;;;5.88;3.80;;;;;;;28.34;41.57;100763.09;5092481;28;20539;-65
2022/10/29 11:17:44;;;;;;;7.68;3.88;;;;;;;28.07;41.33;100762.59;5092310;28;20043;-65
2022/10/29 11:20:18;;;;;;;7.82;3.20;;;;;;;28.07;41.38;100752.47;5092157;28;20062;-65
2022/10/29 11:23:03;;;;;;;9.98;3.70;;;;;;;28.39;40.39;100745.84;5092083;28;20126;-65
2022/10/29 11:25:42;;;;;;;8.05;3.22;;;;;;;27.71;41.91;100742.66;5092128;28;20040;-65
2022/10/29 11:28:32;;;;;;;7.40;3.50;;;;;;;27.86;41.97;100739.94;5088976;28;20040;-66
2022/10/29 11:31:19;;;;;;;9.90;4.55;;;;;;;28.31;42.63;100735.47;5079203;28;20036;-65
2022/10/29 11:33:57;;;;;;;8.68;3.33;;;;;;;28.44;42.05;100736.78;5071734;28;20063;-65
2022/10/29 11:36:26;;;;;;;8.43;4.13;;;;;;;28.04;42.40;100730.31;5071635;28;20553;-65
2022/10/29 11:39:08;;;;;;;8.32;3.85;;;;;;;28.71;41.30;100737.22;5086552;28;20028;-67
2022/10/29 11:41:45;;;;;;;10.38;3.95;;;;;;;28.82;41.03;100730.56;5084779;28;20031;-67
2022/10/29 11:44:16;;;;;;;13.95;4.65;;;;;;;29.74;39.06;100721.69;5088097;28;20036;-67
2022/10/29 11:47:10;;;;;;;9.05;3.35;;;;;;;29.55;38.71;100718.03;5091590;28;20040;-67
2022/10/29 11:50:09;;;;;;;9.30;3.88;;;;;;;29.93;38.80;100711.63;5091681;28;20437;-67
2022/10/29 11:52:57;;;;;;;11.35;5.50;;;;;;;30.25;39.60;100710.16;5090621;28;20032;-67
2022/10/29 11:55:40;;;;;;;8.52;3.58;;;;;;;29.06;40.35;100703.28;5091127;28;20032;-66
2022/10/29 11:58:39;;;;;;;8.65;4.32;;;;;;;29.70;41.34;100695.91;5091601;28;20123;-66
2022/10/29 12:01:18;;;;;;;7.35;3.50;;;;;;;29.73;39.50;100690.69;5081813;28;20044;-66
2022/10/29 12:03:44;;;;;;;11.27;3.85;;;;;;;29.66;40.64;100689.34;5091035;28;20063;-67
2022/10/29 12:06:35;;;;;;;13.65;5.97;;;;;;;29.57;41.62;100685.63;5091139;28;20068;-67
2022/10/29 12:09:23;;;;;;;10.68;4.05;;;;;;;29.60;40.44;100690.53;5080521;28;20051;-67
2022/10/29 12:12:11;;;;;;;10.85;4.03;;;;;;;28.74;42.43;100681.81;5070372;28;20036;-67
2022/10/29 12:14:48;;;;;;;13.95;4.50;;;;;;;28.68;43.72;100682.94;5071019;28;20040;-67
2022/10/29 12:17:34;;;;;;;10.70;4.03;;;;;;;28.42;42.46;100679.53;5070228;28;20392;-67
2022/10/29 12:20:31;;;;;;;9.88;3.38;;;;;;;28.03;44.59;100669.25;5071369;28;20116;-68
2022/10/29 12:23:08;;;;;;;12.02;4.15;;;;;;;27.98;44.27;100666.56;5071085;28;20029;-68
2022/10/29 12:25:41;;;;;;;17.88;5.88;;;;;;;27.65;45.89;100657.03;5071137;28;20028;-65
2022/10/29 12:28:34;;;;;;;9.13;4.45;;;;;;;27.36;47.87;100661.44;5071337;28;20370;-65
2022/10/29 12:31:10;;;;;;;8.90;4.25;;;;;;;26.85;46.31;100651.25;5070051;28;20083;-66
2022/10/29 12:33:52;;;;;;;13.43;3.97;;;;;;;26.73;46.64;100658.91;5071366;28;20032;-65
2022/10/29 12:36:47;;;;;;;7.95;3.85;;;;;;;26.60;49.09;100660.22;5074512;28;20040;-65
2022/10/29 12:39:28;;;;;;;12.85;5.07;;;;;;;26.23;47.38;100658.47;5071229;28;20055;-65
2022/10/29 12:42:00;;;;;;;20.08;4.82;;;;;;;25.84;48.49;100658.00;5070810;28;20125;-65
2022/10/29 12:44:44;;;;;;;8.43;3.50;;;;;;;25.78;49.02;100658.25;5075044;28;20060;-65
2022/10/29 12:47:19;;;;;;;11.93;5.20;;;;;;;25.76;50.93;100652.25;5075755;28;20547;-65
2022/10/29 12:50:01;;;;;;;8.13;4.13;;;;;;;25.70;51.23;100649.44;5074415;28;20036;-65
2022/10/29 12:52:49;;;;;;;11.68;3.92;;;;;;;25.50;53.37;100645.78;5074560;28;20440;-65
2022/10/29 12:55:16;;;;;;;11.80;4.43;;;;;;;25.53;52.00;100637.03;5075269;28;20043;-64
2022/10/29 12:57:42;;;;;;;11.13;4.63;;;;;;;25.55;51.63;100637.59;5075670;28;20032;-65
2022/10/29 13:00:22;;;;;;;17.90;4.70;;;;;;;25.50;51.87;100635.69;5074787;28;20390;-65
2022/10/29 13:02:51;;;;;;;10.52;3.78;;;;;;;25.35;51.84;100633.66;5074653;28;20047;-64
2022/10/29 13:05:38;;;;;;;5.63;3.55;;;;;;;25.53;51.22;100626.97;5074345;28;20036;-64
2022/10/29 13:08:04;;;;;;;9.70;3.85;;;;;;;25.69;50.90;100631.44;5074340;28;20041;-65
2022/10/29 13:10:32;;;;;;;8.20;3.42;;;;;;;25.58;50.10;100620.72;5073613;28;20425;-66
2022/10/29 13:12:57;;;;;;;8.63;4.03;;;;;;;25.47;49.82;100625.28;5074154;28;20047;-67
2022/10/29 13:15:47;;;;;;;8.65;3.65;;;;;;;25.20;53.16;100617.19;5073473;28;20036;-56
2022/10/29 13:18:22;;;;;;;11.95;3.42;;;;;;;25.31;57.83;100618.09;5073582;28;20043;-58
2022/10/29 13:20:51;;;;;;;6.47;3.58;;;;;;;25.20;54.97;100608.19;5072962;28;20112;-67
2022/10/29 13:23:22;;;;;;;10.02;3.92;;;;;;;24.92;52.38;100610.13;5073680;28;20036;-58
2022/10/29 13:25:56;;;;;;;10.98;4.13;;;;;;;25.02;55.26;100614.81;5074191;28;20083;-56
2022/10/29 13:28:21;;;;;;;8.15;3.65;;;;;;;25.08;52.98;100606.47;5074605;28;20047;-57
2022/10/29 13:31:08;;;;;;;7.43;3.92;;;;;;;25.14;59.35;100607.31;5074234;28;20438;-56
2022/10/29 13:33:36;;;;;;;;;;;;;;;25.13;59.62;100601.06;5053297;28;20044;-58
2022/10/29 13:36:27;;;;;;;6.10;3.10;;;;;;;25.00;54.36;100598.75;5074276;28;19916;-56
2022/10/29 13:38:53;;;;;;;11.02;3.95;;;;;;;24.95;52.93;100598.69;5068464;28;20052;-59
2022/10/29 13:41:41;;;;;;;7.90;3.50;;;;;;;24.93;56.63;100602.78;5073587;28;20029;-56
2022/10/29 13:44:06;;;;;;;9.13;4.50;;;;;;;24.81;54.70;100600.22;5074201;28;20037;-58
2022/10/29 13:46:52;;;;;;;9.35;3.78;;;;;;;24.90;57.27;100601.38;5073944;28;20039;-60
2022/10/29 13:49:28;;;;;;;11.77;4.82;;;;;;;24.85;57.47;100594.00;5074153;28;20493;-60
2022/10/29 13:51:59;;;;;;;12.40;6.82;;;;;;;24.73;57.37;100593.34;5073593;28;20040;-63
2022/10/29 13:54:30;;;;;;;13.32;5.95;;;;;;;24.71;56.43;100594.66;5073328;28;20044;-64
2022/10/29 13:57:04;;;;;;;9.95;5.18;;;;;;;24.48;57.17;100593.09;5073781;28;20115;-65
2022/10/29 13:59:53;;;;;;;14.15;6.47;;;;;;;24.53;57.59;100593.97;5073862;28;20032;-66
2022/10/29 14:02:38;;;;;;;14.40;5.70;;;;;;;24.38;58.15;100591.06;5073644;28;20488;-67
2022/10/29 14:05:24;;;;;;;11.15;5.38;;;;;;;24.34;57.90;100595.41;5073624;28;20131;-65
2022/10/29 14:08:05;;;;;;;;;;;;;;;24.22;58.83;100597.41;5072965;28;20033;-65
2022/10/29 14:10:34;;;;;;;39.30;13.88;;;;;;;24.15;61.07;100594.06;5073294;28;19913;-64
2022/10/29 14:13:11;;;;;;;103.50;41.40;;;;;;;24.01;61.29;100590.91;5073364;28;20047;-65
2022/10/29 14:15:39;;;;;;;19.42;6.70;;;;;;;23.91;62.73;100580.72;5073404;28;20032;-64
2022/10/29 14:18:36;;;;;;;16.60;5.95;;;;;;;23.83;62.07;100579.25;5073387;28;20036;-64
2022/10/29 14:21:05;;;;;;;12.50;6.88;;;;;;;23.78;62.05;100586.53;5049627;28;20055;-67
2022/10/29 14:23:32;;;;;;;15.18;5.60;;;;;;;23.69;62.31;100591.59;5073278;28;20086;-66
2022/10/29 14:26:02;;;;;;;8.10;3.90;;;;;;;23.59;63.33;100590.59;5073018;28;20036;-66
2022/10/29 14:28:32;;;;;;;27.25;10.10;;;;;;;23.48;64.75;100587.75;5073189;28;20507;-66
2022/10/29 14:31:22;;;;;;;18.58;7.30;;;;;;;23.45;65.48;100587.41;5072740;28;20059;-66
2022/10/29 14:33:56;;;;;;;21.30;8.20;;;;;;;23.31;67.66;100581.50;5073026;28;20712;-66
2022/10/29 14:36:29;;;;;;;13.85;7.50;;;;;;;23.25;68.14;100590.66;5072904;28;20086;-66
2022/10/29 14:38:59;;;;;;;20.05;7.72;;;;;;;23.16;69.52;100592.97;5072936;28;20029;-66
2022/10/29 14:41:28;;;;;;;21.65;9.13;;;;;;;23.06;70.55;100587.34;5072790;28;20028;-65
2022/10/29 14:44:17;;;;;;;11.43;5.55;;;;;;;22.92;71.59;100586.88;5072909;28;20031;-66
2022/10/29 14:46:50;;;;;;;13.88;7.47;;;;;;;22.78;72.05;100585.50;5073165;28;20044;-66
2022/10/29 14:49:23;;;;;;;14.32;6.70;;;;;;;22.64;72.86;100586.91;5072754;28;20028;-66
2022/10/29 14:52:01;;;;;;;15.18;6.93;;;;;;;22.60;72.58;100574.88;5072293;28;20037;-66
2022/10/29 14:54:40;;;;;;;18.58;7.30;;;;;;;22.55;72.68;100578.31;5072728;28;20055;-66
2022/10/29 14:57:12;;;;;;;12.73;7.10;;;;;;;22.44;73.20;100577.31;5072499;28;20214;-66
2022/10/29 14:59:37;;;;;;;18.70;8.27;;;;;;;22.36;72.96;100577.69;5072793;28;20055;-66
2022/10/29 15:02:09;;;;;;;19.45;8.15;;;;;;;22.30;73.07;100581.41;5072272;28;20111;-66
2022/10/29 15:04:49;;;;;;;16.73;6.80;;;;;;;22.26;73.37;100577.50;5072589;28;20032;-66
2022/10/29 15:07:22;;;;;;;16.05;6.97;;;;;;;22.21;73.78;100574.69;5071698;28;20038;-66
2022/10/29 15:10:08;;;;;;;19.70;8.50;;;;;;;22.10;74.54;100573.66;5072268;28;20047;-66
2022/10/29 15:12:35;;;;;;;11.90;7.30;;;;;;;22.06;75.79;100582.50;5067960;28;20055;-66
2022/10/29 15:15:08;;;;;;;;;;;;;;;21.95;76.81;100576.88;5071405;28;20036;-64
2022/10/29 15:17:35;;;;;;;16.35;6.80;;;;;;;21.86;77.94;100577.50;5072040;28;19916;-66
2022/10/29 15:20:05;;;;;;;14.27;6.30;;;;;;;21.78;79.09;100581.41;5072126;28;20036;-66
2022/10/29 15:22:36;;;;;;;15.43;6.53;;;;;;;21.60;80.01;100568.81;5071945;28;20060;-65
2022/10/29 15:25:05;;;;;;;11.75;5.85;;;;;;;21.67;79.18;100576.81;5071975;28;20044;-65
2022/10/29 15:27:33;;;;;;;12.95;6.07;;;;;;;21.62;80.17;100574.00;5072013;28;20456;-65
2022/10/29 15:29:59;;;;;;;13.85;5.63;;;;;;;21.57;79.33;100571.16;5071757;28;20418;-66
2022/10/29 15:32:26;;;;;;;13.48;5.43;;;;;;;21.44;80.11;100574.13;5071715;28;20092;-66
2022/10/29 15:34:54;;;;;;;9.10;5.13;;;;;;;21.29;81.45;100572.72;5071828;28;20028;-64
2022/10/29 15:37:25;;;;;;;11.40;5.40;;;;;;;21.08;83.68;100574.13;5071727;28;20060;-64
2022/10/29 15:40:14;;;;;;;12.35;6.68;;;;;;;20.93;86.23;100570.19;5071796;28;20119;-65
2022/10/29 15:42:40;;;;;;;10.05;5.88;;;;;;;20.87;87.38;100571.97;5071810;28;20036;-65
2022/10/29 15:45:11;;;;;;;15.02;5.90;;;;;;;20.79;88.76;100575.81;5071736;28;20044;-65
2022/10/29 15:47:41;;;;;;;12.20;5.60;;;;;;;20.67;91.46;100574.13;5071761;28;20036;-65
2022/10/29 15:50:10;;;;;;;17.90;7.80;;;;;;;20.52;91.89;100570.00;5071509;28;20064;-64
2022/10/29 15:52:41;;;;;;;16.73;6.70;;;;;;;20.46;92.75;100562.78;5071507;28;20040;-64
2022/10/29 15:55:30;;;;;;;15.00;6.03;;;;;;;20.32;93.60;100564.84;5071626;28;20131;-65
2022/10/29 15:58:03;;;;;;;13.48;6.22;;;;;;;20.20;94.64;100563.13;5071580;28;20132;-65
2022/10/29 16:00:29;;;;;;;17.52;7.13;;;;;;;20.03;95.54;100568.38;5071218;28;20064;-66
2022/10/29 16:03:01;;;;;;;13.40;5.82;;;;;;;19.94;96.66;100572.41;5070113;28;20055;-65
2022/10/29 16:05:26;;;;;;;13.18;7.07;;;;;;;19.84;97.71;100561.31;5071398;28;20036;-65